Time;durP1;ratioP1;P1;durP2;ratioP2;P2;SDS_P1;SDS_P2;PMS_P1;PMS_P2;Temp;Humidity;BMP_temperature;BMP_pressure;BME280_temperature;BME280_humidity;BME280_pressure;Samples;Min_cycle;Max_cycle;Signal;HPM_P1;HPM_P2
2020/12/09 00:01:21;;;;;;;68.93;29.27;;;;;;;;;;5048119;28;20299;-72
2020/12/09 00:03:46;;;;;;;54.93;27.27;;;;;;;;;;5040146;28;20264;-71
2020/12/09 00:06:12;;;;;;;58.17;28.53;;;;;;;;;;5045084;28;20198;-72
2020/12/09 00:08:38;;;;;;;63.83;27.93;;;;;;;;;;5037440;28;20617;-72
2020/12/09 00:11:04;;;;;;;64.93;28.60;;;;;;;;;;5050725;28;20544;-71
2020/12/09 00:13:29;;;;;;;72.70;28.93;;;;;;;;;;5038362;28;20566;-71
2020/12/09 00:15:55;;;;;;;68.33;29.80;;;;;;;;;;5049322;28;20185;-71
2020/12/09 00:18:20;;;;;;;63.97;28.90;;;;;;;;;;5038641;28;20280;-71
2020/12/09 00:20:45;;;;;;;85.40;31.43;;;;;;;;;;5051024;28;20189;-71
2020/12/09 00:23:11;;;;;;;69.43;29.77;;;;;;;;;;5047660;28;20681;-72
2020/12/09 00:25:36;;;;;;;68.07;29.40;;;;;;;;;;5037826;28;20595;-71
2020/12/09 00:28:02;;;;;;;80.33;31.33;;;;;;;;;;5048521;28;20189;-71
2020/12/09 00:30:27;;;;;;;74.97;30.33;;;;;;;;;;5040103;28;20193;-71
2020/12/09 00:32:52;;;;;;;79.87;31.53;;;;;;;;;;5047277;28;20340;-71
2020/12/09 00:35:18;;;;;;;83.00;31.20;;;;;;;;;;5041079;28;20193;-72
2020/12/09 00:37:43;;;;;;;71.73;29.83;;;;;;;;;;5047177;28;20194;-72
2020/12/09 00:40:08;;;;;;;115.20;32.83;;;;;;;;;;5039949;28;20193;-71
2020/12/09 00:42:35;;;;;;;275.50;34.80;;;;;;;;;;5065060;28;20205;-72
2020/12/09 00:45:00;;;;;;;121.63;31.77;;;;;;;;;;5034030;28;20533;-72
2020/12/09 00:47:26;;;;;;;98.53;30.17;;;;;;;;;;5047091;28;20189;-72
2020/12/09 00:52:51;;;;;;;91.17;29.60;;;;;;;;;;5024334;28;20193;-72
2020/12/09 00:55:16;;;;;;;59.50;25.87;;;;;;;;;;5039487;28;20239;-72
2020/12/09 00:57:41;;;;;;;64.90;28.60;;;;;;;;;;5047569;28;20631;-72
2020/12/09 01:00:08;;;;;;;56.37;25.40;;;;;;;;;;5049011;28;20280;-72
2020/12/09 01:02:34;;;;;;;67.73;28.30;;;;;;;;;;5037365;28;20505;-72
2020/12/09 01:05:00;;;;;;;118.87;32.00;;;;;;;;;;5050894;28;20216;-72
2020/12/09 01:07:25;;;;;;;265.30;38.03;;;;;;;;;;5039666;28;20298;-71
2020/12/09 01:09:50;;;;;;;72.37;29.17;;;;;;;;;;5049171;28;20319;-71
2020/12/09 01:12:16;;;;;;;111.40;30.87;;;;;;;;;;5037037;28;20200;-72
2020/12/09 01:14:42;;;;;;;66.20;28.80;;;;;;;;;;5049484;28;20539;-72
2020/12/09 01:17:07;;;;;;;77.27;29.97;;;;;;;;;;5034859;28;20560;-71
2020/12/09 01:19:33;;;;;;;63.13;27.93;;;;;;;;;;5046985;28;20200;-71
2020/12/09 01:21:58;;;;;;;62.93;26.93;;;;;;;;;;5039852;28;20691;-71
2020/12/09 01:24:23;;;;;;;53.13;26.93;;;;;;;;;;5047147;28;20186;-71
2020/12/09 01:26:49;;;;;;;56.93;26.23;;;;;;;;;;5038553;28;20182;-71
2020/12/09 01:29:15;;;;;;;56.17;27.13;;;;;;;;;;5049508;28;20659;-72
2020/12/09 01:31:41;;;;;;;47.47;23.97;;;;;;;;;;5044162;28;20261;-72
2020/12/09 01:34:07;;;;;;;55.00;26.73;;;;;;;;;;5040035;28;20257;-72
2020/12/09 01:36:33;;;;;;;60.67;27.63;;;;;;;;;;5047159;28;20189;-72
2020/12/09 01:38:58;;;;;;;62.90;27.27;;;;;;;;;;5038534;28;20192;-72
2020/12/09 01:41:25;;;;;;;57.37;27.20;;;;;;;;;;5048243;28;20317;-72
2020/12/09 01:43:51;;;;;;;60.33;26.73;;;;;;;;;;5034625;28;20200;-72
2020/12/09 01:46:37;;;;;;;56.23;25.93;;;;;;;;;;5048214;28;20182;-72
2020/12/09 01:49:03;;;;;;;56.40;25.70;;;;;;;;;;5033081;28;20287;-72
2020/12/09 01:51:30;;;;;;;58.17;24.60;;;;;;;;;;5047139;28;20197;-71
2020/12/09 01:53:57;;;;;;;56.53;25.53;;;;;;;;;;5042491;28;20190;-72
2020/12/09 01:56:23;;;;;;;56.97;26.40;;;;;;;;;;5053785;28;20252;-72
2020/12/09 01:58:50;;;;;;;53.00;26.07;;;;;;;;;;5043040;28;20273;-72
2020/12/09 02:01:15;;;;;;;52.60;25.03;;;;;;;;;;5051631;28;20201;-72
2020/12/09 02:03:41;;;;;;;165.87;33.13;;;;;;;;;;5043125;28;20189;-72
2020/12/09 02:06:06;;;;;;;248.07;33.63;;;;;;;;;;5050660;28;20235;-72
2020/12/09 02:08:33;;;;;;;271.60;39.07;;;;;;;;;;5052288;28;20205;-72
2020/12/09 02:11:00;;;;;;;81.33;27.10;;;;;;;;;;5041449;28;20190;-72
2020/12/09 02:13:26;;;;;;;58.20;24.03;;;;;;;;;;5050965;28;20193;-72
2020/12/09 02:15:52;;;;;;;60.00;26.13;;;;;;;;;;5043136;28;20185;-71
2020/12/09 02:18:18;;;;;;;59.63;25.37;;;;;;;;;;5052629;28;20231;-71
2020/12/09 02:20:43;;;;;;;51.47;22.57;;;;;;;;;;5043951;28;20185;-71
2020/12/09 02:23:08;;;;;;;44.27;22.37;;;;;;;;;;5050899;28;20298;-71
2020/12/09 02:25:34;;;;;;;50.07;24.30;;;;;;;;;;5043872;28;20174;-71
2020/12/09 02:27:59;;;;;;;54.23;24.67;;;;;;;;;;5050490;28;20276;-71
2020/12/09 02:30:24;;;;;;;59.07;25.83;;;;;;;;;;5041837;28;20242;-71
2020/12/09 02:32:50;;;;;;;57.23;25.83;;;;;;;;;;5050891;28;20302;-71
2020/12/09 02:35:15;;;;;;;71.23;29.20;;;;;;;;;;5040292;28;20165;-71
2020/12/09 02:37:40;;;;;;;70.80;28.40;;;;;;;;;;5048662;28;20185;-71
2020/12/09 02:40:06;;;;;;;90.37;30.23;;;;;;;;;;5052527;28;20180;-71
2020/12/09 02:42:31;;;;;;;122.30;31.20;;;;;;;;;;5043713;28;20723;-71
2020/12/09 02:44:56;;;;;;;129.13;32.77;;;;;;;;;;5048728;28;20180;-71
2020/12/09 02:47:22;;;;;;;90.73;29.70;;;;;;;;;;5040419;28;20536;-72
2020/12/09 02:49:47;;;;;;;141.63;30.83;;;;;;;;;;5049793;28;20231;-72
2020/12/09 02:52:12;;;;;;;189.67;34.23;;;;;;;;;;5044047;28;20205;-71
2020/12/09 02:54:38;;;;;;;234.83;38.67;;;;;;;;;;5050653;28;20181;-71
2020/12/09 02:57:03;;;;;;;86.40;26.67;;;;;;;;;;5043041;28;20290;-71
2020/12/09 02:59:28;;;;;;;116.47;29.17;;;;;;;;;;5051234;28;20181;-71
2020/12/09 03:01:54;;;;;;;153.03;31.10;;;;;;;;;;5037999;28;20227;-72
2020/12/09 03:04:19;;;;;;;154.57;31.10;;;;;;;;;;5048365;28;20280;-72
2020/12/09 03:06:44;;;;;;;283.00;38.00;;;;;;;;;;5040860;28;20247;-72
2020/12/09 03:09:10;;;;;;;114.80;26.57;;;;;;;;;;5050073;28;20533;-72
2020/12/09 03:11:35;;;;;;;218.93;36.67;;;;;;;;;;5047015;28;20184;-72
2020/12/09 03:14:00;;;;;;;162.00;28.40;;;;;;;;;;5042579;28;20178;-72
2020/12/09 03:16:26;;;;;;;152.03;29.07;;;;;;;;;;5051103;28;20189;-72
2020/12/09 03:18:51;;;;;;;160.43;28.80;;;;;;;;;;5039475;28;20189;-72
2020/12/09 03:21:17;;;;;;;103.67;27.57;;;;;;;;;;5046075;28;20201;-72
2020/12/09 03:23:42;;;;;;;202.23;30.43;;;;;;;;;;5041454;28;20178;-72
2020/12/09 03:26:08;;;;;;;212.53;31.33;;;;;;;;;;5047947;28;20185;-72
2020/12/09 03:28:34;;;;;;;239.33;32.63;;;;;;;;;;5041510;28;20192;-72
2020/12/09 03:30:59;;;;;;;338.27;37.70;;;;;;;;;;5049977;28;20185;-72
2020/12/09 03:33:25;;;;;;;185.60;28.33;;;;;;;;;;5041263;28;20562;-72
2020/12/09 03:35:50;;;;;;;294.03;35.93;;;;;;;;;;5044806;28;20645;-72
2020/12/09 03:38:15;;;;;;;129.47;27.27;;;;;;;;;;5042410;28;20184;-72
2020/12/09 03:40:41;;;;;;;130.63;27.50;;;;;;;;;;5046354;28;20654;-72
2020/12/09 03:43:06;;;;;;;163.83;29.10;;;;;;;;;;5053129;28;20197;-72
2020/12/09 03:45:31;;;;;;;177.73;28.80;;;;;;;;;;5038393;28;20193;-72
2020/12/09 03:47:57;;;;;;;212.70;31.70;;;;;;;;;;5047664;28;20640;-72
2020/12/09 03:50:22;;;;;;;153.73;27.10;;;;;;;;;;5034452;28;20239;-72
2020/12/09 03:52:48;;;;;;;170.87;28.67;;;;;;;;;;5047415;28;20177;-72
2020/12/09 03:55:13;;;;;;;202.00;31.63;;;;;;;;;;5040563;28;20189;-72
2020/12/09 03:57:39;;;;;;;188.30;29.73;;;;;;;;;;5041322;28;20182;-71
2020/12/09 04:00:04;;;;;;;177.30;31.27;;;;;;;;;;5041126;28;20231;-71
2020/12/09 04:02:29;;;;;;;161.00;31.10;;;;;;;;;;5045742;28;20676;-71
2020/12/09 04:04:55;;;;;;;149.03;32.27;;;;;;;;;;5037409;28;20231;-72
2020/12/09 04:07:20;;;;;;;112.27;28.87;;;;;;;;;;5047440;28;20205;-72
2020/12/09 04:09:46;;;;;;;139.20;31.70;;;;;;;;;;5043313;28;20196;-72
2020/12/09 04:12:11;;;;;;;68.50;25.90;;;;;;;;;;5042174;28;20170;-72
2020/12/09 04:14:36;;;;;;;106.13;28.77;;;;;;;;;;5047493;28;20263;-72
2020/12/09 04:17:02;;;;;;;87.43;26.67;;;;;;;;;;5039690;28;20192;-72
2020/12/09 04:19:27;;;;;;;79.97;26.77;;;;;;;;;;5049444;28;20189;-72
2020/12/09 04:21:52;;;;;;;103.03;26.57;;;;;;;;;;5040116;28;20209;-72
2020/12/09 04:24:17;;;;;;;83.10;25.70;;;;;;;;;;5048825;28;20189;-72
2020/12/09 04:26:43;;;;;;;77.03;24.23;;;;;;;;;;5039559;28;20585;-72
2020/12/09 04:29:08;;;;;;;137.50;28.87;;;;;;;;;;5048266;28;20181;-71
2020/12/09 04:31:33;;;;;;;81.13;23.70;;;;;;;;;;5038915;28;20185;-72
2020/12/09 04:34:02;;;;;;;54.23;20.10;;;;;;;;;;5050369;28;20304;-72
2020/12/09 04:36:28;;;;;;;64.53;24.17;;;;;;;;;;5032205;28;20247;-72
2020/12/09 04:38:54;;;;;;;77.43;26.30;;;;;;;;;;5048743;28;20193;-71
2020/12/09 04:41:20;;;;;;;87.83;25.03;;;;;;;;;;5047484;28;20292;-71
2020/12/09 04:43:45;;;;;;;103.27;25.60;;;;;;;;;;5055389;28;20593;-71
2020/12/09 04:46:11;;;;;;;109.17;25.40;;;;;;;;;;5047360;28;20721;-71
2020/12/09 04:48:40;;;;;;;241.40;34.77;;;;;;;;;;5038597;28;20479;-71
2020/12/09 04:51:39;;;;;;;197.67;32.23;;;;;;;;;;5049322;28;20169;-71
2020/12/09 04:54:14;;;;;;;150.77;29.60;;;;;;;;;;5039645;28;20671;-71
2020/12/09 04:56:55;;;;;;;123.77;25.17;;;;;;;;;;5047636;28;20188;-71
2020/12/09 04:59:25;;;;;;;58.23;23.50;;;;;;;;;;5038129;28;20223;-72
2020/12/09 05:02:07;;;;;;;68.87;23.07;;;;;;;;;;5047648;28;20193;-71
2020/12/09 05:04:35;;;;;;;65.70;22.67;;;;;;;;;;5037256;28;20239;-72
2020/12/09 05:07:05;;;;;;;74.13;24.67;;;;;;;;;;5049505;28;20201;-72
2020/12/09 05:09:40;;;;;;;67.13;24.77;;;;;;;;;;5037978;28;20548;-71
2020/12/09 05:12:06;;;;;;;84.47;25.73;;;;;;;;;;5045367;28;20183;-71
2020/12/09 05:14:33;;;;;;;148.93;29.50;;;;;;;;;;5039689;28;20660;-71
2020/12/09 05:16:59;;;;;;;79.10;24.60;;;;;;;;;;5049421;28;20259;-72
2020/12/09 05:19:26;;;;;;;157.33;29.40;;;;;;;;;;5036910;28;20182;-72
2020/12/09 05:21:51;;;;;;;167.87;30.00;;;;;;;;;;5047569;28;20216;-72
2020/12/09 05:24:20;;;;;;;109.53;26.07;;;;;;;;;;5037253;28;20192;-72
2020/12/09 05:26:46;;;;;;;115.40;24.90;;;;;;;;;;5046296;28;20187;-72
2020/12/09 05:29:16;;;;;;;85.60;27.17;;;;;;;;;;5041739;28;20711;-71
2020/12/09 05:31:47;;;;;;;125.43;28.77;;;;;;;;;;5051211;28;20193;-71
2020/12/09 05:34:26;;;;;;;152.67;29.23;;;;;;;;;;5040747;28;20233;-71
2020/12/09 05:36:54;;;;;;;89.07;25.10;;;;;;;;;;5051287;28;20659;-73
2020/12/09 05:39:20;;;;;;;107.93;26.73;;;;;;;;;;5049008;28;20220;-72
2020/12/09 05:41:46;;;;;;;219.50;33.83;;;;;;;;;;5045920;28;20212;-72
2020/12/09 05:44:11;;;;;;;125.23;30.13;;;;;;;;;;5054266;28;20178;-72
2020/12/09 05:46:51;;;;;;;181.17;29.53;;;;;;;;;;5045418;28;20201;-71
2020/12/09 05:49:22;;;;;;;241.90;33.33;;;;;;;;;;4350837;28;10001161;-71
2020/12/09 05:52:10;;;;;;;153.37;28.00;;;;;;;;;;5036456;28;20628;-71
2020/12/09 05:54:43;;;;;;;292.53;35.03;;;;;;;;;;5047518;28;20691;-72
2020/12/09 05:57:11;;;;;;;164.87;26.67;;;;;;;;;;5035958;28;20189;-71
2020/12/09 05:59:38;;;;;;;183.90;29.27;;;;;;;;;;5041718;28;20717;-71
2020/12/09 06:02:08;;;;;;;182.60;30.03;;;;;;;;;;5039061;28;20205;-73
2020/12/09 06:04:47;;;;;;;151.03;28.00;;;;;;;;;;5046206;28;20186;-71
2020/12/09 06:07:13;;;;;;;134.80;30.53;;;;;;;;;;5036100;28;20208;-72
2020/12/09 06:09:38;;;;;;;120.70;29.97;;;;;;;;;;5045844;28;20568;-72
2020/12/09 06:12:05;;;;;;;146.63;28.30;;;;;;;;;;5038296;28;20326;-71
2020/12/09 06:14:31;;;;;;;113.13;27.00;;;;;;;;;;5047470;28;20194;-71
2020/12/09 06:16:57;;;;;;;162.30;28.73;;;;;;;;;;5036208;28;20518;-72
2020/12/09 06:19:23;;;;;;;144.80;29.70;;;;;;;;;;5049169;28;20200;-72
2020/12/09 06:21:54;;;;;;;309.27;39.27;;;;;;;;;;5034860;28;20213;-72
2020/12/09 06:24:19;;;;;;;192.47;34.33;;;;;;;;;;5047127;28;20186;-72
2020/12/09 06:26:48;;;;;;;321.50;37.80;;;;;;;;;;5041764;28;20185;-71
2020/12/09 06:29:13;;;;;;;216.10;29.20;;;;;;;;;;5040711;28;20193;-72
2020/12/09 06:31:38;;;;;;;182.47;30.00;;;;;;;;;;5063599;28;20173;-72
2020/12/09 06:34:12;;;;;;;206.50;30.03;;;;;;;;;;5037625;28;20241;-72
2020/12/09 06:36:38;;;;;;;207.83;30.20;;;;;;;;;;5047992;28;20184;-72
2020/12/09 06:39:12;;;;;;;193.60;29.20;;;;;;;;;;5038334;28;20540;-72
2020/12/09 06:42:04;;;;;;;146.07;26.00;;;;;;;;;;5048257;28;20197;-72
2020/12/09 06:44:30;;;;;;;297.50;34.27;;;;;;;;;;5036735;28;20192;-72
2020/12/09 06:46:58;;;;;;;290.17;35.43;;;;;;;;;;5048929;28;20181;-71
2020/12/09 06:49:35;;;;;;;318.20;36.70;;;;;;;;;;5034238;28;20276;-71
2020/12/09 06:52:34;;;;;;;312.20;34.67;;;;;;;;;;4696831;28;9999997;-71
2020/12/09 06:55:00;;;;;;;233.70;30.57;;;;;;;;;;5031863;28;20212;-71
2020/12/09 06:57:35;;;;;;;237.63;32.70;;;;;;;;;;5045188;28;20255;-72
2020/12/09 07:00:09;;;;;;;236.67;32.10;;;;;;;;;;5032377;28;20193;-71
2020/12/09 07:02:35;;;;;;;239.03;32.03;;;;;;;;;;5045758;28;20205;-71
2020/12/09 07:05:00;;;;;;;360.53;37.70;;;;;;;;;;5035823;28;20201;-71
2020/12/09 07:07:35;;;;;;;363.80;38.70;;;;;;;;;;5044220;28;20693;-72
2020/12/09 07:10:03;;;;;;;347.53;36.00;;;;;;;;;;5033201;28;20247;-71
2020/12/09 07:12:28;;;;;;;170.70;26.57;;;;;;;;;;5046897;28;20184;-72
2020/12/09 07:14:56;;;;;;;172.60;28.47;;;;;;;;;;5036533;28;20185;-71
2020/12/09 07:17:27;;;;;;;324.63;36.53;;;;;;;;;;5052367;28;20194;-71
2020/12/09 07:19:55;;;;;;;312.30;35.47;;;;;;;;;;5039781;28;20289;-71
2020/12/09 07:22:21;;;;;;;254.83;32.53;;;;;;;;;;5048395;28;20217;-71
2020/12/09 07:24:46;;;;;;;335.93;36.73;;;;;;;;;;5040747;28;20247;-72
2020/12/09 07:27:12;;;;;;;373.30;37.70;;;;;;;;;;5049345;28;20181;-71
2020/12/09 07:29:41;;;;;;;217.97;31.80;;;;;;;;;;5049349;28;20173;-71
2020/12/09 07:32:08;;;;;;;204.60;31.23;;;;;;;;;;5040584;28;20268;-71
2020/12/09 07:34:49;;;;;;;205.07;32.37;;;;;;;;;;5047270;28;20304;-72
2020/12/09 07:37:22;;;;;;;204.30;30.33;;;;;;;;;;5035837;28;20193;-71
2020/12/09 07:39:49;;;;;;;157.70;30.27;;;;;;;;;;5049336;28;20647;-71
2020/12/09 07:42:16;;;;;;;277.27;35.33;;;;;;;;;;5037958;28;21486;-72
2020/12/09 07:44:43;;;;;;;264.77;33.63;;;;;;;;;;5049739;28;20200;-72
2020/12/09 07:47:09;;;;;;;133.50;28.03;;;;;;;;;;5035452;28;20275;-71
2020/12/09 07:49:35;;;;;;;307.13;36.73;;;;;;;;;;5051651;28;20238;-71
2020/12/09 07:52:01;;;;;;;187.80;30.27;;;;;;;;;;5037191;28;20178;-71
2020/12/09 07:54:27;;;;;;;277.83;35.90;;;;;;;;;;5051452;28;20246;-71
2020/12/09 07:56:52;;;;;;;263.17;33.93;;;;;;;;;;5038853;28;20211;-71
2020/12/09 07:59:18;;;;;;;169.33;27.63;;;;;;;;;;5039722;28;20604;-71
2020/12/09 08:01:43;;;;;;;149.37;28.00;;;;;;;;;;5036612;28;20213;-72
2020/12/09 08:04:09;;;;;;;238.33;34.60;;;;;;;;;;5053915;28;20574;-72
2020/12/09 08:06:35;;;;;;;142.07;28.93;;;;;;;;;;5040124;28;20255;-72
2020/12/09 08:09:14;;;;;;;118.23;26.97;;;;;;;;;;5046161;28;20660;-71
2020/12/09 08:11:43;;;;;;;150.67;28.10;;;;;;;;;;5046473;28;20177;-71
2020/12/09 08:14:09;;;;;;;158.43;29.67;;;;;;;;;;5039379;28;20235;-73
2020/12/09 08:16:34;;;;;;;264.67;35.77;;;;;;;;;;5048137;28;20170;-72
2020/12/09 08:19:07;;;;;;;214.73;31.47;;;;;;;;;;5036921;28;20185;-72
2020/12/09 08:21:32;;;;;;;97.00;26.13;;;;;;;;;;5043751;28;20259;-72
2020/12/09 08:23:59;;;;;;;115.07;27.03;;;;;;;;;;5038782;28;20181;-72
2020/12/09 08:26:29;;;;;;;120.93;25.80;;;;;;;;;;5047095;28;20533;-72
2020/12/09 08:28:55;;;;;;;163.33;29.77;;;;;;;;;;5039065;28;20189;-72
2020/12/09 08:31:21;;;;;;;100.40;27.60;;;;;;;;;;5049718;28;20245;-72
2020/12/09 08:33:46;;;;;;;130.10;30.83;;;;;;;;;;5041410;28;20644;-72
2020/12/09 08:36:13;;;;;;;105.83;27.63;;;;;;;;;;5046532;28;20654;-72
2020/12/09 08:38:41;;;;;;;124.50;29.33;;;;;;;;;;5036181;28;20251;-72
2020/12/09 08:41:11;;;;;;;111.57;27.07;;;;;;;;;;5048021;28;20228;-72
2020/12/09 08:43:39;;;;;;;129.73;26.53;;;;;;;;;;5038481;28;20648;-72
2020/12/09 08:46:07;;;;;;;112.87;26.70;;;;;;;;;;5048847;28;20188;-72
2020/12/09 08:48:34;;;;;;;165.13;28.70;;;;;;;;;;5050688;28;20189;-72
2020/12/09 08:51:00;;;;;;;141.17;26.17;;;;;;;;;;5036906;28;20196;-72
2020/12/09 08:53:25;;;;;;;310.07;32.90;;;;;;;;;;5050474;28;20186;-72
2020/12/09 08:55:51;;;;;;;185.70;26.87;;;;;;;;;;5038964;28;20224;-73
2020/12/09 08:58:17;;;;;;;92.40;24.63;;;;;;;;;;5051014;28;20269;-72
2020/12/09 09:00:43;;;;;;;164.07;24.70;;;;;;;;;;5038834;28;20185;-72
2020/12/09 09:03:13;;;;;;;290.50;30.07;;;;;;;;;;5047408;28;20209;-72
2020/12/09 09:05:40;;;;;;;327.50;30.77;;;;;;;;;;5037941;28;20185;-72
2020/12/09 09:08:07;;;;;;;317.90;32.40;;;;;;;;;;5049907;28;20197;-72
2020/12/09 09:10:32;;;;;;;165.20;23.50;;;;;;;;;;5038142;28;20220;-72
2020/12/09 09:12:58;;;;;;;243.87;27.27;;;;;;;;;;5043007;28;20201;-72
2020/12/09 09:15:24;;;;;;;346.67;30.33;;;;;;;;;;5038090;28;20197;-72
2020/12/09 09:17:49;;;;;;;359.17;30.40;;;;;;;;;;5042707;28;20185;-72
2020/12/09 09:20:14;;;;;;;209.27;25.83;;;;;;;;;;5048481;28;20262;-72
2020/12/09 09:22:40;;;;;;;533.53;40.77;;;;;;;;;;5038251;28;20224;-72
2020/12/09 09:25:05;;;;;;;367.23;31.43;;;;;;;;;;5054308;28;20188;-72
2020/12/09 09:27:31;;;;;;;200.77;26.33;;;;;;;;;;5041073;28;20762;-72
2020/12/09 09:29:56;;;;;;;221.17;29.67;;;;;;;;;;5049555;28;20212;-72
2020/12/09 09:32:22;;;;;;;207.53;28.47;;;;;;;;;;5037666;28;20173;-72
2020/12/09 09:34:48;;;;;;;408.97;36.77;;;;;;;;;;5045381;28;20204;-72
2020/12/09 09:37:13;;;;;;;209.40;24.53;;;;;;;;;;5038874;28;20193;-72
2020/12/09 09:39:39;;;;;;;215.87;26.93;;;;;;;;;;5049688;28;20216;-72
2020/12/09 09:42:04;;;;;;;257.97;29.43;;;;;;;;;;5037967;28;20208;-72
2020/12/09 09:44:29;;;;;;;316.50;32.83;;;;;;;;;;5047649;28;20225;-72
2020/12/09 09:46:59;;;;;;;226.63;29.63;;;;;;;;;;5040048;28;20609;-72
2020/12/09 09:49:25;;;;;;;210.50;26.30;;;;;;;;;;5047029;28;20268;-72
2020/12/09 09:51:52;;;;;;;156.73;24.90;;;;;;;;;;5039106;28;20197;-72
2020/12/09 09:54:18;;;;;;;191.80;25.17;;;;;;;;;;5064479;28;20208;-72
2020/12/09 09:56:44;;;;;;;177.30;23.97;;;;;;;;;;5046477;28;20186;-72
2020/12/09 09:59:09;;;;;;;230.87;27.17;;;;;;;;;;5039934;28;20656;-72
2020/12/09 10:01:34;;;;;;;196.30;23.83;;;;;;;;;;5045454;28;20252;-72
2020/12/09 10:04:00;;;;;;;234.00;29.13;;;;;;;;;;5036554;28;20217;-72
2020/12/09 10:06:25;;;;;;;169.73;24.03;;;;;;;;;;5044741;28;20534;-72
2020/12/09 10:08:51;;;;;;;138.80;25.00;;;;;;;;;;5038766;28;20186;-72
2020/12/09 10:11:16;;;;;;;182.80;25.03;;;;;;;;;;5048946;28;20185;-72
2020/12/09 10:13:42;;;;;;;250.07;28.43;;;;;;;;;;5039673;28;20184;-72
2020/12/09 10:16:07;;;;;;;203.10;26.43;;;;;;;;;;5048799;28;20227;-72
2020/12/09 10:18:32;;;;;;;204.53;27.00;;;;;;;;;;5045999;28;20679;-72
2020/12/09 10:20:58;;;;;;;187.30;25.27;;;;;;;;;;5050365;28;20208;-72
2020/12/09 10:23:23;;;;;;;130.60;23.40;;;;;;;;;;5052736;28;20228;-72
2020/12/09 10:25:49;;;;;;;150.93;23.73;;;;;;;;;;5042176;28;20185;-72
2020/12/09 10:28:14;;;;;;;140.83;23.47;;;;;;;;;;5050887;28;20272;-72
2020/12/09 10:30:45;;;;;;;188.70;24.83;;;;;;;;;;5042060;28;20217;-72
2020/12/09 10:33:11;;;;;;;114.30;21.00;;;;;;;;;;5052477;28;20233;-72
2020/12/09 10:35:37;;;;;;;133.77;21.90;;;;;;;;;;5040280;28;20235;-72
2020/12/09 10:38:02;;;;;;;92.87;21.33;;;;;;;;;;5054186;28;20189;-72
2020/12/09 10:40:27;;;;;;;80.77;20.83;;;;;;;;;;5039894;28;20216;-72
2020/12/09 10:42:53;;;;;;;153.40;22.40;;;;;;;;;;5046986;28;20241;-72
2020/12/09 10:45:18;;;;;;;101.97;22.43;;;;;;;;;;5041647;28;20189;-73
2020/12/09 10:47:44;;;;;;;115.77;21.77;;;;;;;;;;5042620;28;20239;-72
2020/12/09 10:50:09;;;;;;;194.83;23.37;;;;;;;;;;5041680;28;20633;-72
2020/12/09 10:52:34;;;;;;;72.93;19.83;;;;;;;;;;5050540;28;20235;-72
2020/12/09 10:55:00;;;;;;;146.83;23.80;;;;;;;;;;5047418;28;20258;-72
2020/12/09 10:57:26;;;;;;;94.07;20.90;;;;;;;;;;5045583;28;20223;-72
2020/12/09 10:59:52;;;;;;;107.07;21.67;;;;;;;;;;5049807;28;21052;-72
2020/12/09 11:02:17;;;;;;;112.60;21.80;;;;;;;;;;5040965;28;20275;-72
2020/12/09 11:04:42;;;;;;;93.40;20.53;;;;;;;;;;5051595;28;20173;-72
2020/12/09 11:07:09;;;;;;;155.03;24.23;;;;;;;;;;5042584;28;20228;-72
2020/12/09 11:09:35;;;;;;;154.33;24.33;;;;;;;;;;5049782;28;20633;-72
2020/12/09 11:12:01;;;;;;;113.60;22.20;;;;;;;;;;5041809;28;20189;-72
2020/12/09 11:14:26;;;;;;;126.87;22.87;;;;;;;;;;5051123;28;20200;-72
2020/12/09 11:16:51;;;;;;;118.63;23.60;;;;;;;;;;5038464;28;20181;-72
2020/12/09 11:19:17;;;;;;;111.43;23.03;;;;;;;;;;5043113;28;20186;-72
2020/12/09 11:21:42;;;;;;;137.03;25.33;;;;;;;;;;5034971;28;20201;-72
2020/12/09 11:24:07;;;;;;;166.80;25.23;;;;;;;;;;5051736;28;20211;-72
2020/12/09 11:26:33;;;;;;;142.97;24.10;;;;;;;;;;5047128;28;20185;-72
2020/12/09 11:28:58;;;;;;;129.90;24.13;;;;;;;;;;5036097;28;20199;-72
2020/12/09 11:31:24;;;;;;;148.37;25.77;;;;;;;;;;5050229;28;20591;-72
2020/12/09 11:33:51;;;;;;;106.87;24.90;;;;;;;;;;5038673;28;20270;-72
2020/12/09 11:36:24;;;;;;;145.97;25.30;;;;;;;;;;5054657;28;20240;-71
2020/12/09 11:38:51;;;;;;;206.57;30.80;;;;;;;;;;5037811;28;20192;-71
2020/12/09 11:41:26;;;;;;;161.17;27.43;;;;;;;;;;5048332;28;20194;-71
2020/12/09 11:43:54;;;;;;;146.33;28.97;;;;;;;;;;5040291;28;20242;-72
2020/12/09 11:46:19;;;;;;;130.57;26.40;;;;;;;;;;5047390;28;20185;-72
2020/12/09 11:48:45;;;;;;;116.43;26.03;;;;;;;;;;5040939;28;20282;-72
2020/12/09 11:51:12;;;;;;;143.43;29.20;;;;;;;;;;5046893;28;20535;-72
2020/12/09 11:53:38;;;;;;;157.83;27.37;;;;;;;;;;5034986;28;20186;-72
2020/12/09 11:56:03;;;;;;;196.37;30.40;;;;;;;;;;5048235;28;20212;-72
2020/12/09 11:58:28;;;;;;;142.10;28.83;;;;;;;;;;5037060;28;20644;-71
2020/12/09 12:00:54;;;;;;;144.70;27.73;;;;;;;;;;5047124;28;20260;-71
2020/12/09 12:03:19;;;;;;;145.23;30.30;;;;;;;;;;5043128;28;20577;-72
2020/12/09 12:05:50;;;;;;;117.27;28.77;;;;;;;;;;5036644;28;20204;-72
2020/12/09 12:08:15;;;;;;;130.70;31.00;;;;;;;;;;5047757;28;20262;-72
2020/12/09 12:10:41;;;;;;;110.03;29.70;;;;;;;;;;5036973;28;20745;-72
2020/12/09 12:13:06;;;;;;;121.47;31.33;;;;;;;;;;5045248;28;20190;-72
2020/12/09 12:15:31;;;;;;;115.17;32.07;;;;;;;;;;5041292;28;20330;-72
2020/12/09 12:17:57;;;;;;;125.20;32.60;;;;;;;;;;5046977;28;20193;-72
2020/12/09 12:20:22;;;;;;;79.87;29.07;;;;;;;;;;5037429;28;20192;-72
2020/12/09 12:22:47;;;;;;;75.90;31.67;;;;;;;;;;5047593;28;20260;-72
2020/12/09 12:25:13;;;;;;;95.43;32.33;;;;;;;;;;5035752;28;20667;-71
2020/12/09 12:27:38;;;;;;;78.20;30.07;;;;;;;;;;5045537;28;20188;-71
2020/12/09 12:30:05;;;;;;;66.40;28.33;;;;;;;;;;5037301;28;20767;-71
2020/12/09 12:32:30;;;;;;;83.27;31.93;;;;;;;;;;5046698;28;20597;-72
2020/12/09 12:34:56;;;;;;;72.27;31.97;;;;;;;;;;5047589;28;20221;-72
2020/12/09 12:37:21;;;;;;;80.33;32.37;;;;;;;;;;5036185;28;20260;-72
2020/12/09 12:39:46;;;;;;;86.90;33.30;;;;;;;;;;5046988;28;20268;-72
2020/12/09 12:42:12;;;;;;;89.20;34.47;;;;;;;;;;5038731;28;20300;-71
2020/12/09 12:44:37;;;;;;;76.00;31.37;;;;;;;;;;5049058;28;20208;-72
2020/12/09 12:47:02;;;;;;;78.47;34.23;;;;;;;;;;5035625;28;20196;-72
2020/12/09 12:49:28;;;;;;;84.27;34.50;;;;;;;;;;5044782;28;20812;-72
2020/12/09 12:51:57;;;;;;;84.90;33.97;;;;;;;;;;5041267;28;20189;-71
2020/12/09 12:54:22;;;;;;;84.83;34.57;;;;;;;;;;5044458;28;20217;-71
2020/12/09 12:56:47;;;;;;;85.73;36.63;;;;;;;;;;5034522;28;20649;-72
2020/12/09 12:59:13;;;;;;;100.00;39.87;;;;;;;;;;5046197;28;20757;-72
2020/12/09 13:01:38;;;;;;;79.43;33.57;;;;;;;;;;5035302;28;20182;-72
2020/12/09 13:04:03;;;;;;;90.67;36.97;;;;;;;;;;5042933;28;20185;-72
2020/12/09 13:06:29;;;;;;;94.87;37.00;;;;;;;;;;5047537;28;20177;-72
2020/12/09 13:08:54;;;;;;;95.60;37.47;;;;;;;;;;5034910;28;20601;-72
2020/12/09 13:11:19;;;;;;;92.77;38.83;;;;;;;;;;5048026;28;20193;-72
2020/12/09 13:13:45;;;;;;;86.13;36.40;;;;;;;;;;5037548;28;20189;-72
2020/12/09 13:16:10;;;;;;;84.07;36.60;;;;;;;;;;5046571;28;20644;-72
2020/12/09 13:18:36;;;;;;;84.57;35.67;;;;;;;;;;5039806;28;20177;-71
2020/12/09 13:21:02;;;;;;;82.17;34.87;;;;;;;;;;5045341;28;20178;-71
2020/12/09 13:23:28;;;;;;;85.53;35.93;;;;;;;;;;5035619;28;20676;-72
2020/12/09 13:25:53;;;;;;;82.47;33.90;;;;;;;;;;5044278;28;20239;-72
2020/12/09 13:28:18;;;;;;;97.33;38.53;;;;;;;;;;4338435;28;10000747;-72
2020/12/09 13:30:44;;;;;;;90.63;36.93;;;;;;;;;;5038005;28;20255;-72
2020/12/09 13:33:12;;;;;;;108.87;39.83;;;;;;;;;;5033927;28;20221;-72
2020/12/09 13:35:38;;;;;;;105.17;40.17;;;;;;;;;;5042846;28;20772;-72
2020/12/09 13:38:03;;;;;;;116.10;40.00;;;;;;;;;;5043135;28;20194;-72
2020/12/09 13:40:28;;;;;;;102.97;39.80;;;;;;;;;;5034621;28;20672;-72
2020/12/09 13:42:54;;;;;;;107.70;39.87;;;;;;;;;;5042799;28;20300;-72
2020/12/09 13:45:19;;;;;;;109.60;39.93;;;;;;;;;;5035924;28;20607;-72
2020/12/09 13:47:44;;;;;;;105.50;40.03;;;;;;;;;;5040259;28;20605;-72
2020/12/09 13:50:10;;;;;;;106.40;40.93;;;;;;;;;;5036016;28;20362;-72
2020/12/09 13:52:36;;;;;;;114.07;41.27;;;;;;;;;;5041165;28;20265;-71
2020/12/09 13:55:01;;;;;;;115.67;41.90;;;;;;;;;;5039337;28;20239;-72
2020/12/09 13:57:26;;;;;;;98.93;38.60;;;;;;;;;;5046076;28;20194;-72
2020/12/09 13:59:52;;;;;;;104.90;41.23;;;;;;;;;;5037525;28;20204;-71
2020/12/09 14:02:18;;;;;;;117.40;40.60;;;;;;;;;;5048886;28;20263;-72
2020/12/09 14:04:44;;;;;;;116.63;41.70;;;;;;;;;;5034174;28;20541;-72
2020/12/09 14:07:09;;;;;;;122.97;43.73;;;;;;;;;;5044219;28;20243;-72
2020/12/09 14:09:34;;;;;;;116.13;42.77;;;;;;;;;;5048140;28;20185;-72